Time;durP1;ratioP1;P1;durP2;ratioP2;P2;SDS_P1;SDS_P2;PMS_P1;PMS_P2;Temp;Humidity;BMP_temperature;BMP_pressure;BME280_temperature;BME280_humidity;BME280_pressure;Samples;Min_cycle;Max_cycle;Signal;HPM_P1;HPM_P2
2023/12/03 00:02:07;;;;;;;;;;;0.90;99.90;;;;;;5032987;28;19917;-62
2023/12/03 00:04:33;;;;;;;;;;;0.90;99.90;;;;;;5033753;28;20356;-62
2023/12/03 00:06:59;;;;;;;;;;;0.90;99.90;;;;;;5053282;28;19961;-62
2023/12/03 00:09:24;;;;;;;;;;;0.90;99.90;;;;;;5049761;28;19921;-62
2023/12/03 00:11:50;;;;;;;;;;;0.90;99.90;;;;;;5041232;28;20333;-62
2023/12/03 00:14:15;;;;;;;;;;;0.90;99.90;;;;;;5049040;28;19970;-62
2023/12/03 00:16:41;;;;;;;;;;;0.90;99.90;;;;;;5052703;28;20393;-62
2023/12/03 00:19:06;;;;;;;;;;;0.90;99.90;;;;;;5054923;28;19932;-62
2023/12/03 00:21:32;;;;;;;;;;;0.90;99.90;;;;;;5041709;28;19921;-62
2023/12/03 00:23:58;;;;;;;;;;;0.90;99.90;;;;;;5040544;28;19931;-62
2023/12/03 00:26:23;;;;;;;;;;;0.90;99.90;;;;;;5051219;28;19918;-61
2023/12/03 00:28:49;;;;;;;;;;;0.90;99.90;;;;;;5047604;28;19920;-61
2023/12/03 00:31:14;;;;;;;;;;;1.00;99.90;;;;;;5028665;28;19916;-60
2023/12/03 00:33:40;;;;;;;;;;;0.90;99.90;;;;;;5049759;28;19929;-61
2023/12/03 00:36:05;;;;;;;;;;;0.90;99.90;;;;;;5036906;28;19974;-64
2023/12/03 00:38:31;;;;;;;;;;;0.90;99.90;;;;;;5058278;28;19916;-62
2023/12/03 00:40:56;;;;;;;;;;;0.90;99.90;;;;;;5055017;28;19928;-65
2023/12/03 00:43:22;;;;;;;;;;;0.80;99.90;;;;;;5055322;28;19927;-63
2023/12/03 00:45:49;;;;;;;;;;;0.80;99.90;;;;;;5054656;28;20373;-64
2023/12/03 00:48:15;;;;;;;;;;;0.80;99.90;;;;;;5050023;28;19921;-61
2023/12/03 00:50:49;;;;;;;;;;;0.80;99.90;;;;;;5054752;28;19971;-69
2023/12/03 00:53:15;;;;;;;;;;;0.70;99.90;;;;;;5046892;28;20349;-64
2023/12/03 00:55:40;;;;;;;;;;;0.70;99.90;;;;;;5051352;28;20003;-64
2023/12/03 00:58:06;;;;;;;;;;;0.70;99.90;;;;;;5049044;28;19924;-64
2023/12/03 01:00:31;;;;;;;;;;;0.70;99.90;;;;;;5044113;28;20299;-64
2023/12/03 01:02:57;;;;;;;;;;;0.80;99.90;;;;;;5031812;28;20305;-64
2023/12/03 01:05:22;;;;;;;;;;;0.70;99.90;;;;;;5069785;28;20368;-63
2023/12/03 01:07:48;;;;;;;;;;;0.70;99.90;;;;;;5064487;28;19924;-63
2023/12/03 01:10:13;;;;;;;;;;;0.70;99.90;;;;;;5050953;28;19998;-63
2023/12/03 01:12:38;;;;;;;;;;;0.70;99.90;;;;;;5053609;28;19964;-63
2023/12/03 01:15:04;;;;;;;;;;;0.70;99.90;;;;;;5057298;28;19925;-63
2023/12/03 01:17:30;;;;;;;;;;;0.70;99.90;;;;;;5048529;28;20000;-63
2023/12/03 01:19:55;;;;;;;;;;;0.70;99.90;;;;;;5050953;28;20396;-63
2023/12/03 01:22:21;;;;;;;;;;;0.70;99.90;;;;;;5049558;28;19923;-63
2023/12/03 01:24:46;;;;;;;;;;;0.80;99.90;;;;;;5054387;28;19916;-63
2023/12/03 01:27:12;;;;;;;;;;;0.80;99.90;;;;;;5053394;28;19920;-64
2023/12/03 01:29:38;;;;;;;;;;;0.80;99.90;;;;;;5050852;28;19956;-64
2023/12/03 01:32:03;;;;;;;;;;;0.80;99.90;;;;;;5050918;28;19924;-63
2023/12/03 01:34:29;;;;;;;;;;;0.80;99.90;;;;;;5049701;28;19916;-64
2023/12/03 01:36:54;;;;;;;;;;;0.80;99.90;;;;;;5050548;28;20328;-64
2023/12/03 01:39:21;;;;;;;;;;;0.90;99.90;;;;;;5052399;28;19925;-63
2023/12/03 01:41:46;;;;;;;;;;;0.90;99.90;;;;;;5052068;28;20011;-64
2023/12/03 01:44:11;;;;;;;;;;;0.90;99.90;;;;;;5053303;28;20012;-62
2023/12/03 01:46:37;;;;;;;;;;;0.90;99.90;;;;;;5055140;28;20456;-62
2023/12/03 01:49:02;;;;;;;;;;;0.90;99.90;;;;;;5055566;28;19916;-62
2023/12/03 01:51:28;;;;;;;;;;;0.90;99.90;;;;;;5057451;28;19931;-61
2023/12/03 01:53:54;;;;;;;;;;;0.90;99.90;;;;;;5049289;28;19959;-62
2023/12/03 01:56:20;;;;;;;;;;;0.90;99.90;;;;;;5048304;28;20155;-62
2023/12/03 01:58:45;;;;;;;;;;;0.90;99.90;;;;;;5066881;28;19986;-62
2023/12/03 02:01:11;;;;;;;;;;;0.90;99.90;;;;;;5053085;28;19916;-61
2023/12/03 02:03:36;;;;;;;;;;;1.00;99.90;;;;;;5036318;28;19962;-62
2023/12/03 02:06:05;;;;;;;;;;;1.00;99.90;;;;;;5051867;28;19974;-62
2023/12/03 02:08:32;;;;;;;;;;;1.00;99.90;;;;;;5052492;28;20157;-61
2023/12/03 02:10:58;;;;;;;;;;;1.00;99.90;;;;;;5050798;28;19959;-62
2023/12/03 02:13:24;;;;;;;;;;;1.00;99.90;;;;;;5052001;28;19920;-62
2023/12/03 02:15:49;;;;;;;;;;;1.00;99.90;;;;;;5049223;28;19917;-62
2023/12/03 02:18:15;;;;;;;;;;;1.00;99.90;;;;;;5050662;28;19920;-62
2023/12/03 02:20:40;;;;;;;;;;;1.00;99.90;;;;;;5053419;28;19917;-62
2023/12/03 02:23:06;;;;;;;;;;;1.00;99.90;;;;;;5048386;28;20015;-62
2023/12/03 02:25:32;;;;;;;;;;;0.90;99.90;;;;;;5048638;28;19923;-62
2023/12/03 02:27:57;;;;;;;;;;;1.00;99.90;;;;;;5048930;28;19972;-62
2023/12/03 02:30:22;;;;;;;;;;;1.00;99.90;;;;;;5051294;28;19956;-62
2023/12/03 02:32:48;;;;;;;;;;;1.00;99.90;;;;;;5049171;28;20304;-62
2023/12/03 02:35:14;;;;;;;;;;;0.90;99.90;;;;;;5051927;28;19921;-62
2023/12/03 02:37:39;;;;;;;;;;;0.90;99.90;;;;;;5053212;28;19917;-62
2023/12/03 02:40:05;;;;;;;;;;;0.90;99.90;;;;;;5052061;28;19916;-62
2023/12/03 02:42:31;;;;;;;;;;;0.90;99.90;;;;;;5052277;28;19920;-62
2023/12/03 02:44:56;;;;;;;;;;;0.90;99.90;;;;;;5053448;28;20438;-62
2023/12/03 02:47:22;;;;;;;;;;;1.00;99.90;;;;;;5067677;28;20408;-62
2023/12/03 02:49:47;;;;;;;;;;;1.00;99.90;;;;;;5060260;28;19916;-62
2023/12/03 02:52:13;;;;;;;;;;;1.00;99.90;;;;;;5063243;28;20380;-62
2023/12/03 02:54:38;;;;;;;;;;;1.00;99.90;;;;;;5057042;28;19920;-62
2023/12/03 02:57:05;;;;;;;;;;;1.00;99.90;;;;;;5056454;28;20005;-63
2023/12/03 02:59:31;;;;;;;;;;;1.00;99.90;;;;;;5061137;28;19921;-62
2023/12/03 03:01:57;;;;;;;;;;;1.00;99.90;;;;;;5056726;28;19924;-62
2023/12/03 03:04:22;;;;;;;;;;;1.00;99.90;;;;;;5048920;28;19952;-62
2023/12/03 03:06:47;;;;;;;;;;;1.10;99.90;;;;;;5051151;28;20292;-63
2023/12/03 03:09:13;;;;;;;;;;;1.10;99.90;;;;;;5034738;28;19916;-62
2023/12/03 03:11:38;;;;;;;;;;;1.10;99.90;;;;;;5055085;28;19924;-62
2023/12/03 03:14:04;;;;;;;;;;;1.10;99.90;;;;;;5059246;28;19927;-62
2023/12/03 03:16:30;;;;;;;;;;;1.10;99.90;;;;;;5057523;28;19970;-62
2023/12/03 03:18:55;;;;;;;;;;;1.20;99.90;;;;;;5037505;28;19925;-62
2023/12/03 03:21:21;;;;;;;;;;;1.10;99.90;;;;;;5052412;28;19932;-62
2023/12/03 03:23:46;;;;;;;;;;;1.20;99.90;;;;;;5051580;28;20003;-62
2023/12/03 03:26:12;;;;;;;;;;;1.20;99.90;;;;;;5051147;28;20220;-64
2023/12/03 03:28:37;;;;;;;;;;;1.20;99.90;;;;;;5055201;28;20358;-63
2023/12/03 03:31:03;;;;;;;;;;;1.20;99.90;;;;;;5053997;28;19916;-62
2023/12/03 03:33:29;;;;;;;;;;;1.20;99.90;;;;;;5051694;28;20065;-62
2023/12/03 03:35:54;;;;;;;;;;;1.20;99.90;;;;;;5051880;28;20720;-62
2023/12/03 03:38:20;;;;;;;;;;;1.20;99.90;;;;;;5052157;28;19922;-62
2023/12/03 03:40:45;;;;;;;;;;;1.20;99.90;;;;;;5051812;28;20328;-63
2023/12/03 03:43:11;;;;;;;;;;;1.30;99.90;;;;;;5051394;28;19917;-62
2023/12/03 03:45:37;;;;;;;;;;;1.30;99.90;;;;;;5032908;28;19970;-62
2023/12/03 03:48:03;;;;;;;;;;;1.30;99.90;;;;;;5037421;28;20372;-63
2023/12/03 03:50:28;;;;;;;;;;;1.30;99.90;;;;;;5057293;28;19970;-62
2023/12/03 03:52:53;;;;;;;;;;;1.30;99.90;;;;;;5034550;28;20035;-62
2023/12/03 03:55:19;;;;;;;;;;;1.30;99.90;;;;;;5051946;28;19921;-62
2023/12/03 03:57:44;;;;;;;;;;;1.30;99.90;;;;;;5058098;28;20389;-63
2023/12/03 04:00:11;;;;;;;;;;;1.30;99.90;;;;;;5037086;28;20278;-62
2023/12/03 04:02:36;;;;;;;;;;;1.40;99.90;;;;;;5057921;28;19916;-62
2023/12/03 04:05:02;;;;;;;;;;;1.40;99.90;;;;;;5055424;28;19920;-62
2023/12/03 04:07:28;;;;;;;;;;;1.30;99.90;;;;;;5050408;28;19931;-63
2023/12/03 04:09:53;;;;;;;;;;;1.30;99.90;;;;;;5055261;28;19917;-62
2023/12/03 04:12:19;;;;;;;;;;;1.40;99.90;;;;;;5050501;28;20372;-62
2023/12/03 04:14:45;;;;;;;;;;;1.30;99.90;;;;;;5051385;28;20344;-63
2023/12/03 04:17:10;;;;;;;;;;;1.30;99.90;;;;;;5051627;28;20043;-63
2023/12/03 04:19:36;;;;;;;;;;;1.40;99.90;;;;;;5054288;28;19916;-62
2023/12/03 04:22:01;;;;;;;;;;;1.40;99.90;;;;;;5049713;28;19971;-63
2023/12/03 04:24:27;;;;;;;;;;;1.30;99.90;;;;;;5033320;28;20435;-62
2023/12/03 04:26:52;;;;;;;;;;;1.30;99.90;;;;;;5051209;28;20363;-62
2023/12/03 04:29:18;;;;;;;;;;;1.30;99.90;;;;;;5037505;28;19955;-62
2023/12/03 04:31:43;;;;;;;;;;;1.40;99.90;;;;;;5050827;28;20023;-62
2023/12/03 04:34:09;;;;;;;;;;;1.40;99.90;;;;;;5053964;28;19936;-62
2023/12/03 04:36:34;;;;;;;;;;;1.40;99.90;;;;;;5050661;28;19916;-62
2023/12/03 04:39:00;;;;;;;;;;;1.40;99.90;;;;;;5054596;28;19925;-62
2023/12/03 04:41:33;;;;;;;;;;;1.40;99.90;;;;;;5050220;28;20397;-62
2023/12/03 04:43:58;;;;;;;;;;;1.40;99.90;;;;;;5051848;28;19959;-62
2023/12/03 04:46:24;;;;;;;;;;;1.40;99.90;;;;;;5051144;28;20350;-62
2023/12/03 04:48:49;;;;;;;;;;;1.40;99.90;;;;;;5050181;28;19924;-62
2023/12/03 04:51:15;;;;;;;;;;;1.40;99.90;;;;;;5060516;28;19916;-62
2023/12/03 04:53:40;;;;;;;;;;;1.40;99.90;;;;;;5039469;28;19920;-62
2023/12/03 04:56:06;;;;;;;;;;;1.40;99.90;;;;;;5050781;28;19924;-63
2023/12/03 04:58:31;;;;;;;;;;;1.40;99.90;;;;;;5053852;28;19942;-62
2023/12/03 05:00:57;;;;;;;;;;;1.40;99.90;;;;;;5053422;28;20416;-62
2023/12/03 05:03:22;;;;;;;;;;;1.40;99.90;;;;;;5057920;28;19948;-63
2023/12/03 05:05:48;;;;;;;;;;;1.40;99.90;;;;;;5037342;28;19917;-63
2023/12/03 05:08:13;;;;;;;;;;;1.50;99.90;;;;;;5051517;28;19916;-63
2023/12/03 05:10:39;;;;;;;;;;;1.50;99.90;;;;;;5068452;28;19916;-62
2023/12/03 05:13:05;;;;;;;;;;;1.50;99.90;;;;;;5044912;28;19921;-62
2023/12/03 05:15:30;;;;;;;;;;;1.50;99.90;;;;;;5050092;28;20312;-62
2023/12/03 05:17:56;;;;;;;;;;;1.50;99.90;;;;;;5054753;28;20193;-62
2023/12/03 05:20:22;;;;;;;;;;;1.50;99.90;;;;;;5050002;28;19921;-62
2023/12/03 05:22:47;;;;;;;;;;;1.50;99.90;;;;;;5053893;28;19959;-62
2023/12/03 05:25:13;;;;;;;;;;;1.50;99.90;;;;;;5050147;28;19920;-62
2023/12/03 05:27:38;;;;;;;;;;;1.50;99.90;;;;;;5051709;28;19963;-62
2023/12/03 05:30:04;;;;;;;;;;;1.50;99.90;;;;;;5065832;28;19923;-62
2023/12/03 05:32:30;;;;;;;;;;;1.50;99.90;;;;;;5049578;28;19968;-62
2023/12/03 05:34:55;;;;;;;;;;;1.50;99.90;;;;;;5049230;28;20419;-63
2023/12/03 05:37:21;;;;;;;;;;;1.50;99.90;;;;;;5053744;28;20233;-63
2023/12/03 05:39:46;;;;;;;;;;;1.60;99.90;;;;;;5049530;28;19920;-62
2023/12/03 05:42:15;;;;;;;;;;;1.60;99.90;;;;;;5051215;28;19952;-62
2023/12/03 05:44:42;;;;;;;;;;;1.60;99.90;;;;;;5049867;28;19967;-62
2023/12/03 05:47:07;;;;;;;;;;;1.60;99.90;;;;;;5049541;28;20047;-63
2023/12/03 05:49:33;;;;;;;;;;;1.60;99.90;;;;;;5051812;28;19924;-62
2023/12/03 05:51:58;;;;;;;;;;;1.60;99.90;;;;;;5051337;28;20393;-62
2023/12/03 05:54:24;;;;;;;;;;;1.60;99.90;;;;;;5050049;28;20063;-63
2023/12/03 05:56:49;;;;;;;;;;;1.60;99.90;;;;;;5068113;28;20007;-62
2023/12/03 05:59:15;;;;;;;;;;;1.60;99.90;;;;;;5032984;28;19921;-62
2023/12/03 06:01:40;;;;;;;;;;;1.60;99.90;;;;;;5053848;28;19938;-62
2023/12/03 06:04:06;;;;;;;;;;;1.60;99.90;;;;;;5033047;28;19924;-63
2023/12/03 06:06:32;;;;;;;;;;;1.60;99.90;;;;;;5031185;28;19921;-62
2023/12/03 06:08:58;;;;;;;;;;;1.60;99.90;;;;;;5052817;28;19921;-64
2023/12/03 06:11:24;;;;;;;;;;;1.50;99.90;;;;;;5031921;28;19917;-62
2023/12/03 06:13:49;;;;;;;;;;;1.60;99.90;;;;;;5067238;28;20003;-62
2023/12/03 06:16:15;;;;;;;;;;;1.50;99.90;;;;;;5031218;28;19917;-62
2023/12/03 06:18:42;;;;;;;;;;;1.60;99.90;;;;;;5049507;28;19981;-62
2023/12/03 06:21:07;;;;;;;;;;;1.60;99.90;;;;;;5049554;28;19917;-62
2023/12/03 06:23:33;;;;;;;;;;;1.60;99.90;;;;;;5037507;28;19920;-62
2023/12/03 06:25:59;;;;;;;;;;;1.60;99.90;;;;;;5051393;28;19916;-62
2023/12/03 06:28:24;;;;;;;;;;;1.60;99.90;;;;;;5049961;28;19916;-62
2023/12/03 06:30:50;;;;;;;;;;;1.50;99.90;;;;;;5050315;28;20381;-62
2023/12/03 06:33:18;;;;;;;;;;;1.60;99.90;;;;;;5059319;28;19925;-62
2023/12/03 06:35:44;;;;;;;;;;;1.50;99.90;;;;;;5049053;28;19917;-62
2023/12/03 06:38:10;;;;;;;;;;;1.50;99.90;;;;;;5030726;28;19995;-63
2023/12/03 06:40:35;;;;;;;;;;;1.50;99.90;;;;;;5035661;28;19978;-63
2023/12/03 06:43:00;;;;;;;;;;;1.50;99.90;;;;;;5048452;28;19916;-63
2023/12/03 06:45:26;;;;;;;;;;;1.50;99.90;;;;;;5048663;28;20305;-63
2023/12/03 06:47:51;;;;;;;;;;;1.50;99.90;;;;;;5048812;28;20046;-65
2023/12/03 06:50:17;;;;;;;;;;;1.50;99.90;;;;;;5049075;28;20377;-63
2023/12/03 06:52:42;;;;;;;;;;;1.50;99.90;;;;;;5048850;28;19929;-63
2023/12/03 06:55:08;;;;;;;;;;;1.50;99.90;;;;;;5052779;28;19917;-63
2023/12/03 06:57:33;;;;;;;;;;;1.50;99.90;;;;;;5049406;28;20195;-63
2023/12/03 06:59:59;;;;;;;;;;;1.50;99.90;;;;;;5051462;28;20320;-63
2023/12/03 07:02:25;;;;;;;;;;;1.50;99.90;;;;;;5031195;28;20393;-63
2023/12/03 07:04:51;;;;;;;;;;;1.50;99.90;;;;;;5049641;28;19917;-62
2023/12/03 07:07:16;;;;;;;;;;;1.50;99.90;;;;;;5052588;28;19916;-62
2023/12/03 07:09:42;;;;;;;;;;;1.60;99.90;;;;;;5058674;28;19920;-62
2023/12/03 07:12:08;;;;;;;;;;;1.50;99.90;;;;;;5049267;28;19916;-62
2023/12/03 07:14:33;;;;;;;;;;;1.50;99.90;;;;;;5048472;28;19917;-62
2023/12/03 07:16:59;;;;;;;;;;;1.50;99.90;;;;;;5049649;28;19921;-63
2023/12/03 07:19:24;;;;;;;;;;;1.50;99.90;;;;;;5048769;28;20304;-62
2023/12/03 07:21:50;;;;;;;;;;;1.60;99.90;;;;;;5051603;28;20011;-62
2023/12/03 07:24:15;;;;;;;;;;;1.60;99.90;;;;;;5049933;28;19916;-62
2023/12/03 07:26:44;;;;;;;;;;;1.60;99.90;;;;;;5059704;28;20350;-62
2023/12/03 07:29:10;;;;;;;;;;;1.60;99.90;;;;;;5054221;28;19925;-62
2023/12/03 07:31:35;;;;;;;;;;;1.60;99.90;;;;;;5061744;28;19935;-62
2023/12/03 07:34:00;;;;;;;;;;;1.60;99.90;;;;;;5049921;28;20440;-63
2023/12/03 07:36:26;;;;;;;;;;;1.60;99.90;;;;;;5052194;28;19917;-62
2023/12/03 07:38:51;;;;;;;;;;;1.60;99.90;;;;;;5054771;28;20011;-62
2023/12/03 07:41:17;;;;;;;;;;;1.60;99.90;;;;;;5050625;28;19920;-61
2023/12/03 07:43:43;;;;;;;;;;;1.60;99.90;;;;;;5051206;28;19917;-64
2023/12/03 07:46:10;;;;;;;;;;;1.70;99.90;;;;;;5051649;28;20351;-62
2023/12/03 07:48:35;;;;;;;;;;;1.70;99.90;;;;;;5052154;28;19996;-64
2023/12/03 07:51:01;;;;;;;;;;;1.70;99.90;;;;;;5051743;28;20008;-64
2023/12/03 07:53:26;;;;;;;;;;;1.70;99.90;;;;;;5050286;28;20397;-64
2023/12/03 07:55:52;;;;;;;;;;;1.70;99.90;;;;;;5051887;28;20371;-64
2023/12/03 07:58:17;;;;;;;;;;;1.70;99.90;;;;;;5053314;28;19916;-64
2023/12/03 08:00:43;;;;;;;;;;;1.70;99.90;;;;;;5054724;28;19973;-64
2023/12/03 08:03:08;;;;;;;;;;;1.70;99.90;;;;;;5055533;28;19949;-64
2023/12/03 08:05:34;;;;;;;;;;;1.80;99.90;;;;;;5058184;28;20384;-64
2023/12/03 08:08:00;;;;;;;;;;;1.80;99.90;;;;;;5035223;28;20381;-64
2023/12/03 08:10:25;;;;;;;;;;;1.80;99.90;;;;;;5050034;28;19916;-64
2023/12/03 08:12:51;;;;;;;;;;;1.80;99.90;;;;;;5052030;28;19921;-65
2023/12/03 08:15:16;;;;;;;;;;;1.80;99.90;;;;;;5050112;28;20039;-65
2023/12/03 08:17:41;;;;;;;;;;;1.80;99.90;;;;;;5050001;28;19921;-64
2023/12/03 08:20:07;;;;;;;;;;;1.80;99.90;;;;;;5050505;28;19986;-64
2023/12/03 08:22:33;;;;;;;;;;;1.80;99.90;;;;;;5049749;28;19962;-64
2023/12/03 08:24:58;;;;;;;;;;;1.90;99.90;;;;;;5053636;28;19924;-64
2023/12/03 08:27:24;;;;;;;;;;;1.90;99.90;;;;;;5052062;28;20304;-64
2023/12/03 08:29:49;;;;;;;;;;;1.90;99.90;;;;;;5052961;28;19920;-64
2023/12/03 08:32:15;;;;;;;;;;;1.90;99.90;;;;;;5045613;28;20492;-62
2023/12/03 08:34:40;;;;;;;;;;;1.90;99.90;;;;;;5047659;28;19916;-63
2023/12/03 08:37:06;;;;;;;;;;;2.00;99.90;;;;;;5043466;28;19931;-63
2023/12/03 08:39:31;;;;;;;;;;;2.00;99.90;;;;;;5041280;28;19952;-62
2023/12/03 08:41:57;;;;;;;;;;;2.00;99.90;;;;;;5047156;28;19924;-63
2023/12/03 08:44:23;;;;;;;;;;;2.00;99.90;;;;;;5047559;28;19921;-63
2023/12/03 08:46:48;;;;;;;;;;;2.00;99.90;;;;;;5047910;28;20008;-63
2023/12/03 08:49:14;;;;;;;;;;;2.00;99.90;;;;;;5039094;28;20282;-60
2023/12/03 08:51:39;;;;;;;;;;;2.00;99.90;;;;;;5041431;28;19923;-63
2023/12/03 08:54:05;;;;;;;;;;;2.00;99.90;;;;;;5049918;28;20385;-63
2023/12/03 08:56:31;;;;;;;;;;;2.00;99.90;;;;;;5040298;28;20377;-61
2023/12/03 08:58:56;;;;;;;;;;;2.00;99.90;;;;;;5047900;28;20536;-62
2023/12/03 09:01:22;;;;;;;;;;;2.10;99.90;;;;;;5048231;28;19921;-61
2023/12/03 09:03:48;;;;;;;;;;;2.10;99.90;;;;;;5051676;28;19979;-61
2023/12/03 09:06:14;;;;;;;;;;;2.20;99.90;;;;;;5050669;28;19929;-60
2023/12/03 09:08:39;;;;;;;;;;;2.20;99.90;;;;;;5052670;28;20414;-62
2023/12/03 09:11:06;;;;;;;;;;;2.30;99.90;;;;;;5045412;28;19917;-61
2023/12/03 09:13:32;;;;;;;;;;;2.30;99.90;;;;;;5044560;28;19924;-63
2023/12/03 09:15:58;;;;;;;;;;;2.30;99.90;;;;;;5048054;28;19959;-62
2023/12/03 09:18:23;;;;;;;;;;;2.30;99.90;;;;;;5042504;28;19916;-62
2023/12/03 09:20:49;;;;;;;;;;;2.30;99.90;;;;;;5048644;28;19951;-62
2023/12/03 09:23:14;;;;;;;;;;;2.30;99.90;;;;;;5048740;28;19964;-64
2023/12/03 09:25:40;;;;;;;;;;;2.30;99.90;;;;;;5049958;28;19917;-62
2023/12/03 09:28:05;;;;;;;;;;;2.30;99.90;;;;;;5044171;28;19917;-63
2023/12/03 09:30:31;;;;;;;;;;;2.30;99.90;;;;;;5049363;28;19924;-64
2023/12/03 09:32:57;;;;;;;;;;;2.40;99.90;;;;;;5049345;28;19944;-65
2023/12/03 09:35:23;;;;;;;;;;;2.30;99.90;;;;;;5032210;28;19920;-62
2023/12/03 09:37:49;;;;;;;;;;;2.30;99.90;;;;;;5050290;28;19916;-63
2023/12/03 09:40:14;;;;;;;;;;;2.40;99.90;;;;;;5053653;28;19930;-60
2023/12/03 09:42:43;;;;;;;;;;;2.40;99.90;;;;;;5046633;28;19923;-59
2023/12/03 09:45:09;;;;;;;;;;;2.40;99.90;;;;;;5054682;28;19916;-59
2023/12/03 09:47:36;;;;;;;;;;;2.50;99.90;;;;;;5066218;28;19916;-60
2023/12/03 09:50:02;;;;;;;;;;;2.50;99.90;;;;;;5056952;28;20010;-61
2023/12/03 09:52:29;;;;;;;;;;;2.50;99.90;;;;;;5064510;28;19921;-62
2023/12/03 09:55:00;;;;;;;;;;;2.60;99.90;;;;;;5064860;28;20309;-62
2023/12/03 09:57:27;;;;;;;;;;;2.70;99.90;;;;;;5064830;28;19931;-62
2023/12/03 09:59:58;;;;;;;;;;;3.00;99.90;;;;;;5031826;28;19921;-63
2023/12/03 10:02:26;;;;;;;;;;;3.30;99.90;;;;;;5048629;28;19962;-62
2023/12/03 10:04:52;;;;;;;;;;;3.60;99.90;;;;;;5049025;28;19965;-61
2023/12/03 10:07:19;;;;;;;;;;;3.90;99.90;;;;;;5046128;28;19916;-62
2023/12/03 10:09:47;;;;;;;;;;;3.90;99.90;;;;;;5046017;28;19959;-62
2023/12/03 10:12:14;;;;;;;;;;;3.90;99.90;;;;;;5046613;28;20523;-62
2023/12/03 10:14:41;;;;;;;;;;;3.90;99.90;;;;;;5044599;28;20393;-62
2023/12/03 10:17:06;;;;;;;;;;;4.00;99.90;;;;;;5045371;28;19917;-62
2023/12/03 10:19:32;;;;;;;;;;;4.20;99.90;;;;;;5046582;28;20455;-62
2023/12/03 10:21:58;;;;;;;;;;;4.40;99.90;;;;;;5044747;28;19951;-62
2023/12/03 10:24:23;;;;;;;;;;;4.90;99.90;;;;;;5046403;28;20424;-63
2023/12/03 10:26:56;;;;;;;;;;;6.00;99.90;;;;;;5052274;28;19969;-62
2023/12/03 10:29:26;;;;;;;;;;;7.00;99.90;;;;;;5048728;28;19985;-63
2023/12/03 10:31:51;;;;;;;;;;;8.00;99.90;;;;;;5046101;28;19963;-62
2023/12/03 10:34:17;;;;;;;;;;;8.90;99.90;;;;;;5049522;28;19964;-63
2023/12/03 10:36:43;;;;;;;;;;;8.70;99.90;;;;;;5048943;28;20423;-63
2023/12/03 10:39:09;;;;;;;;;;;8.10;99.90;;;;;;5048579;28;19983;-63
2023/12/03 10:41:35;;;;;;;;;;;7.10;99.90;;;;;;5043530;28;19917;-62
2023/12/03 10:44:02;;;;;;;;;;;6.50;99.90;;;;;;5048666;28;20365;-62
2023/12/03 10:46:27;;;;;;;;;;;5.90;99.90;;;;;;5047612;28;19971;-62
2023/12/03 10:48:53;;;;;;;;;;;5.40;99.90;;;;;;5041428;28;20014;-62
2023/12/03 10:51:19;;;;;;;;;;;5.00;99.90;;;;;;5052014;28;20396;-62
2023/12/03 10:53:45;;;;;;;;;;;4.70;99.90;;;;;;5058984;28;19921;-62
2023/12/03 10:56:10;;;;;;;;;;;4.60;99.90;;;;;;5052827;28;19999;-62
2023/12/03 10:58:39;;;;;;;;;;;4.40;99.90;;;;;;5056804;28;19922;-62
2023/12/03 11:01:11;;;;;;;;;;;4.30;99.90;;;;;;5060065;28;19923;-62
2023/12/03 11:03:44;;;;;;;;;;;4.10;99.90;;;;;;5046918;28;19952;-62
2023/12/03 11:06:12;;;;;;;;;;;3.90;99.90;;;;;;5053437;28;20346;-62
2023/12/03 11:08:39;;;;;;;;;;;3.60;99.90;;;;;;5051567;28;20026;-64
2023/12/03 11:11:06;;;;;;;;;;;3.30;99.90;;;;;;5051286;28;19916;-63
2023/12/03 11:13:32;;;;;;;;;;;3.10;99.90;;;;;;5053479;28;19921;-63
2023/12/03 11:15:58;;;;;;;;;;;3.00;99.90;;;;;;5049339;28;19916;-63
2023/12/03 11:18:24;;;;;;;;;;;2.80;99.90;;;;;;5051747;28;20384;-63
2023/12/03 11:20:50;;;;;;;;;;;2.70;99.90;;;;;;5052373;28;19986;-63
2023/12/03 11:23:15;;;;;;;;;;;2.60;99.90;;;;;;5052932;28;19916;-63
2023/12/03 11:25:49;;;;;;;;;;;2.50;99.90;;;;;;5056226;28;20507;-63
2023/12/03 11:28:15;;;;;;;;;;;2.50;99.90;;;;;;5052386;28;19917;-63
2023/12/03 11:30:42;;;;;;;;;;;2.40;99.90;;;;;;5056498;28;19974;-63
2023/12/03 11:33:14;;;;;;;;;;;2.40;99.90;;;;;;5028493;28;20360;-63
2023/12/03 11:35:43;;;;;;;;;;;2.30;99.90;;;;;;5050494;28;19917;-63
2023/12/03 11:38:14;;;;;;;;;;;2.40;99.90;;;;;;5044970;28;19959;-61
2023/12/03 11:40:40;;;;;;;;;;;2.40;99.90;;;;;;5050097;28;19917;-62
2023/12/03 11:43:21;;;;;;;;;;;2.60;99.90;;;;;;5050456;28;20395;-62
2023/12/03 11:45:46;;;;;;;;;;;2.80;99.90;;;;;;5050209;28;19920;-60
2023/12/03 11:48:12;;;;;;;;;;;2.90;99.90;;;;;;5048175;28;20025;-59
2023/12/03 11:50:41;;;;;;;;;;;3.00;99.90;;;;;;5047602;28;19921;-59
2023/12/03 11:53:07;;;;;;;;;;;3.00;99.90;;;;;;5048892;28;19928;-59
2023/12/03 11:55:34;;;;;;;;;;;3.30;99.90;;;;;;5046084;28;20316;-63
2023/12/03 11:58:01;;;;;;;;;;;3.70;99.90;;;;;;5047429;28;20420;-62
2023/12/03 12:00:26;;;;;;;;;;;4.20;99.90;;;;;;5049186;28;19917;-62
2023/12/03 12:02:52;;;;;;;;;;;4.30;99.90;;;;;;5046966;28;19972;-63
2023/12/03 12:05:18;;;;;;;;;;;4.20;99.90;;;;;;5043582;28;19932;-62
2023/12/03 12:07:54;;;;;;;;;;;4.10;99.90;;;;;;5047226;28;20498;-62
2023/12/03 12:10:20;;;;;;;;;;;3.90;99.90;;;;;;5056759;28;19927;-62
2023/12/03 12:12:45;;;;;;;;;;;3.70;99.90;;;;;;5045203;28;19925;-63
2023/12/03 12:15:12;;;;;;;;;;;3.80;99.90;;;;;;5043530;28;19917;-62
2023/12/03 12:17:37;;;;;;;;;;;3.80;99.90;;;;;;5039100;28;19916;-62
2023/12/03 12:20:03;;;;;;;;;;;4.00;99.90;;;;;;5041599;28;20077;-62
2023/12/03 12:22:29;;;;;;;;;;;4.70;99.90;;;;;;5043889;28;19932;-62
2023/12/03 12:24:54;;;;;;;;;;;5.70;99.90;;;;;;5043645;28;19916;-63
2023/12/03 12:27:20;;;;;;;;;;;6.90;99.90;;;;;;5024277;28;19935;-63
2023/12/03 12:29:46;;;;;;;;;;;8.10;99.90;;;;;;5041041;28;19925;-63
2023/12/03 12:32:11;;;;;;;;;;;9.10;99.90;;;;;;5045163;28;19924;-63
2023/12/03 12:34:37;;;;;;;;;;;9.90;99.90;;;;;;5042166;28;20301;-63
2023/12/03 12:37:06;;;;;;;;;;;10.70;99.90;;;;;;5023529;28;19925;-63
2023/12/03 12:39:32;;;;;;;;;;;11.60;99.90;;;;;;5045551;28;19917;-63
2023/12/03 12:41:58;;;;;;;;;;;11.90;99.90;;;;;;5042941;28;19927;-64
2023/12/03 12:44:39;;;;;;;;;;;12.40;99.50;;;;;;5045659;28;19923;-64
2023/12/03 12:47:06;;;;;;;;;;;12.90;99.30;;;;;;5044011;28;19917;-65
2023/12/03 12:49:32;;;;;;;;;;;13.50;97.50;;;;;;5048884;28;19923;-64
2023/12/03 12:52:14;;;;;;;;;;;13.40;97.20;;;;;;5054187;28;20007;-64
2023/12/03 12:54:46;;;;;;;;;;;13.60;96.90;;;;;;5048957;28;19921;-64
2023/12/03 12:57:12;;;;;;;;;;;13.00;95.70;;;;;;5050635;28;20381;-64
2023/12/03 12:59:37;;;;;;;;;;;12.50;95.80;;;;;;5041672;28;20367;-64
2023/12/03 13:02:03;;;;;;;;;;;12.00;95.80;;;;;;5047922;28;20007;-62
2023/12/03 13:04:29;;;;;;;;;;;11.70;95.90;;;;;;5044271;28;19932;-64
2023/12/03 13:06:54;;;;;;;;;;;11.40;95.80;;;;;;5049375;28;19921;-64
2023/12/03 13:09:20;;;;;;;;;;;11.10;95.70;;;;;;5050299;28;19931;-64
2023/12/03 13:11:45;;;;;;;;;;;10.80;95.00;;;;;;5050612;28;19916;-63
2023/12/03 13:14:11;;;;;;;;;;;10.50;95.40;;;;;;5047295;28;19921;-63
2023/12/03 13:16:37;;;;;;;;;;;9.90;95.70;;;;;;5048989;28;19923;-63
2023/12/03 13:19:03;;;;;;;;;;;9.20;95.80;;;;;;5049826;28;19921;-63
2023/12/03 13:21:28;;;;;;;;;;;8.20;96.00;;;;;;5047339;28;20913;-62
2023/12/03 13:23:54;;;;;;;;;;;7.60;97.00;;;;;;5050615;28;20549;-63
2023/12/03 13:26:20;;;;;;;;;;;7.20;97.90;;;;;;5049102;28;20004;-63
2023/12/03 13:28:46;;;;;;;;;;;6.80;98.70;;;;;;5050457;28;19924;-63
2023/12/03 13:31:11;;;;;;;;;;;6.50;99.80;;;;;;5052488;28;20438;-63
2023/12/03 13:33:37;;;;;;;;;;;6.10;99.90;;;;;;5045791;28;19926;-63
2023/12/03 13:36:02;;;;;;;;;;;5.90;99.90;;;;;;5060235;28;19971;-62
2023/12/03 13:38:28;;;;;;;;;;;5.60;99.90;;;;;;5055247;28;20013;-62
2023/12/03 13:40:54;;;;;;;;;;;5.30;99.90;;;;;;5049833;28;19923;-63
2023/12/03 13:43:20;;;;;;;;;;;5.00;99.90;;;;;;5049882;28;20347;-64
2023/12/03 13:45:46;;;;;;;;;;;4.70;99.90;;;;;;5048989;28;20000;-63
2023/12/03 13:48:12;;;;;;;;;;;4.50;99.90;;;;;;5031858;28;19963;-64
2023/12/03 13:50:37;;;;;;;;;;;4.40;99.90;;;;;;5049491;28;19948;-63
2023/12/03 13:53:04;;;;;;;;;;;4.20;99.90;;;;;;5050455;28;20412;-63
2023/12/03 13:55:29;;;;;;;;;;;4.00;99.90;;;;;;5049365;28;19940;-63
2023/12/03 13:57:56;;;;;;;;;;;3.90;99.90;;;;;;5046999;28;20395;-63
2023/12/03 14:00:22;;;;;;;;;;;3.80;99.90;;;;;;5043840;28;21003;-62
2023/12/03 14:02:47;;;;;;;;;;;3.70;99.90;;;;;;5052590;28;19924;-63
2023/12/03 14:05:13;;;;;;;;;;;3.50;99.90;;;;;;5049706;28;19922;-63
2023/12/03 14:07:38;;;;;;;;;;;3.40;99.90;;;;;;5048267;28;20278;-63
2023/12/03 14:10:05;;;;;;;;;;;3.30;99.90;;;;;;5028101;28;19916;-63
2023/12/03 14:12:30;;;;;;;;;;;3.20;99.90;;;;;;5043242;28;19963;-63
2023/12/03 14:14:56;;;;;;;;;;;3.20;99.90;;;;;;5044255;28;19925;-63
2023/12/03 14:17:21;;;;;;;;;;;3.20;99.90;;;;;;5045307;28;20420;-62
2023/12/03 14:19:47;;;;;;;;;;;3.10;99.90;;;;;;5044554;28;19960;-62
2023/12/03 14:22:12;;;;;;;;;;;3.00;99.90;;;;;;5043311;28;19943;-62